createdAt,value
2019-03-31T00:01:25.754Z,5.95
2019-03-31T00:04:27.610Z,5.97
2019-03-31T00:07:29.545Z,6.01
2019-03-31T00:10:31.480Z,6.03
2019-03-31T00:13:33.441Z,6.02
2019-03-31T00:16:35.378Z,5.97
2019-03-31T00:19:37.300Z,5.92
2019-03-31T00:22:39.141Z,5.87
2019-03-31T00:25:42.863Z,5.83
2019-03-31T00:28:44.783Z,5.75
2019-03-31T00:31:46.715Z,5.72
2019-03-31T00:34:49.701Z,5.69
2019-03-31T00:37:51.699Z,5.68
2019-03-31T00:40:53.586Z,5.66
2019-03-31T00:43:55.495Z,5.62
2019-03-31T00:46:57.543Z,5.57
2019-03-31T00:49:59.456Z,5.47
2019-03-31T00:53:01.269Z,5.41
2019-03-31T00:56:03.188Z,5.37
2019-03-31T00:59:05.021Z,5.36
2019-03-31T01:02:09.397Z,5.34
2019-03-31T01:05:11.308Z,5.32
2019-03-31T01:08:14.301Z,5.26
2019-03-31T01:11:19.271Z,5.16
2019-03-31T01:14:21.876Z,5.16
2019-03-31T01:17:24.041Z,5.15
2019-03-31T01:20:25.912Z,5.17
2019-03-31T01:23:27.790Z,5.09
2019-03-31T01:26:29.877Z,5.06
2019-03-31T01:29:31.735Z,5.04
2019-03-31T01:32:33.668Z,5.03
2019-03-31T01:35:36.150Z,5.02
2019-03-31T01:38:38.068Z,5.02
2019-03-31T01:41:39.934Z,5.01
2019-03-31T01:44:41.862Z,4.98
2019-03-31T01:47:43.955Z,4.95
2019-03-31T01:50:45.867Z,4.85
2019-03-31T01:53:47.752Z,4.77
2019-03-31T01:56:49.673Z,4.74
2019-03-31T01:59:51.580Z,4.73
2019-03-31T02:02:53.591Z,4.73
2019-03-31T02:05:55.465Z,4.73
2019-03-31T02:08:57.374Z,4.73
2019-03-31T02:11:59.394Z,4.73
2019-03-31T02:15:01.346Z,4.71
2019-03-31T02:18:03.325Z,4.70
2019-03-31T02:21:05.261Z,4.68
2019-03-31T02:24:07.121Z,4.65
2019-03-31T02:27:09.031Z,4.65
2019-03-31T02:30:11.200Z,4.60
2019-03-31T02:33:13.138Z,4.50
2019-03-31T02:36:15.307Z,4.48
2019-03-31T02:39:17.220Z,4.48
2019-03-31T02:42:19.575Z,4.49
2019-03-31T02:45:21.531Z,4.50
2019-03-31T02:48:23.504Z,4.51
2019-03-31T02:51:25.427Z,4.55
2019-03-31T02:54:27.393Z,4.58
2019-03-31T02:57:29.712Z,4.59
2019-03-31T03:00:31.613Z,4.54
2019-03-31T03:03:35.937Z,4.51
2019-03-31T03:06:39.600Z,4.52
2019-03-31T03:09:43.416Z,4.54
2019-03-31T03:12:47.077Z,4.60
2019-03-31T03:16:07.725Z,4.60
2019-03-31T03:19:09.627Z,4.59
2019-03-31T03:22:11.507Z,4.57
2019-03-31T03:25:13.339Z,4.56
2019-03-31T03:28:15.237Z,4.55
2019-03-31T03:31:17.243Z,4.53
2019-03-31T03:34:19.301Z,4.52
2019-03-31T03:37:21.381Z,4.52
2019-03-31T03:40:23.354Z,4.42
2019-03-31T03:43:25.238Z,4.37
2019-03-31T03:46:27.446Z,4.31
2019-03-31T03:49:29.631Z,4.27
2019-03-31T03:52:31.544Z,4.25
2019-03-31T03:55:33.475Z,4.19
2019-03-31T03:58:35.416Z,4.00
2019-03-31T04:01:37.298Z,3.96
2019-03-31T04:04:39.507Z,3.98
2019-03-31T04:07:41.376Z,4.00
2019-03-31T04:10:46.902Z,4.00
2019-03-31T04:13:48.766Z,4.06
2019-03-31T04:16:50.689Z,4.10
2019-03-31T04:19:52.606Z,4.13
2019-03-31T04:22:54.514Z,4.11
2019-03-31T04:25:56.349Z,4.20
2019-03-31T04:28:58.352Z,4.26
2019-03-31T04:32:00.171Z,4.25
2019-03-31T04:35:02.118Z,4.25
2019-03-31T04:38:04.139Z,4.23
2019-03-31T04:41:06.103Z,4.17
2019-03-31T04:44:07.983Z,4.16
2019-03-31T04:47:09.879Z,4.24
2019-03-31T04:50:12.152Z,4.20
2019-03-31T04:53:14.111Z,4.15
2019-03-31T04:56:15.998Z,4.20
2019-03-31T04:59:17.983Z,4.32
2019-03-31T05:02:19.898Z,4.58
2019-03-31T05:05:22.082Z,4.86
2019-03-31T05:08:23.983Z,5.68
2019-03-31T05:11:25.873Z,6.77
2019-03-31T05:14:27.788Z,7.76
2019-03-31T05:17:29.757Z,8.54
2019-03-31T05:20:31.718Z,9.24
2019-03-31T05:23:33.633Z,9.87
2019-03-31T05:26:35.555Z,10.46
2019-03-31T05:29:37.507Z,10.77
2019-03-31T05:32:39.395Z,10.38
2019-03-31T05:35:41.380Z,10.19
2019-03-31T05:38:43.262Z,10.29
2019-03-31T05:41:45.186Z,10.04
2019-03-31T05:44:47.036Z,10.21
2019-03-31T05:47:48.957Z,10.31
2019-03-31T05:50:50.975Z,10.76
2019-03-31T05:53:52.913Z,10.71
2019-03-31T05:56:54.761Z,10.82
2019-03-31T05:59:56.664Z,10.75
2019-03-31T06:02:58.551Z,10.78
2019-03-31T06:06:00.426Z,11.68
2019-03-31T06:09:05.115Z,11.61
2019-03-31T06:12:07.030Z,12.13
2019-03-31T06:15:08.891Z,13.43
2019-03-31T06:18:10.805Z,14.65
2019-03-31T06:21:12.891Z,15.17
2019-03-31T06:24:15.068Z,15.51
2019-03-31T06:27:18.396Z,16.33
2019-03-31T06:30:20.864Z,17.27
2019-03-31T06:33:22.750Z,18.08
2019-03-31T06:36:24.677Z,18.65
2019-03-31T06:39:27.707Z,18.93
2019-03-31T06:42:29.750Z,18.96
2019-03-31T06:45:31.680Z,18.98
2019-03-31T06:48:33.635Z,18.47
2019-03-31T06:51:35.690Z,17.71
2019-03-31T06:54:37.818Z,18.47
2019-03-31T06:57:39.722Z,19.47
2019-03-31T07:00:41.628Z,20.22
2019-03-31T07:03:43.710Z,20.87
2019-03-31T07:06:46.024Z,21.45
2019-03-31T07:09:47.943Z,21.30
2019-03-31T07:12:49.946Z,20.51
2019-03-31T07:15:51.905Z,20.05
2019-03-31T07:18:53.919Z,19.91
2019-03-31T07:21:55.967Z,19.43
2019-03-31T07:24:57.876Z,18.97
2019-03-31T07:27:59.739Z,18.68
2019-03-31T07:31:01.627Z,18.45
2019-03-31T07:34:03.471Z,18.19
2019-03-31T07:37:05.431Z,18.02
2019-03-31T07:40:11.017Z,17.92
2019-03-31T07:43:14.433Z,17.89
2019-03-31T07:46:16.331Z,17.67
2019-03-31T07:49:18.229Z,17.60
2019-03-31T07:52:20.301Z,17.65
2019-03-31T07:55:22.260Z,17.70
2019-03-31T07:58:24.262Z,17.81
2019-03-31T08:01:26.201Z,17.90
2019-03-31T08:04:28.104Z,18.05
2019-03-31T08:07:30.038Z,18.29
2019-03-31T08:10:31.939Z,18.72
2019-03-31T08:13:33.880Z,19.06
2019-03-31T08:16:35.792Z,19.08
2019-03-31T08:19:37.724Z,19.19
2019-03-31T08:22:39.804Z,19.52
2019-03-31T08:25:41.805Z,19.89
2019-03-31T08:28:43.697Z,19.88
2019-03-31T08:31:45.752Z,19.70
2019-03-31T08:34:47.657Z,19.58
2019-03-31T08:37:49.640Z,19.45
2019-03-31T08:40:51.606Z,19.42
2019-03-31T08:43:53.552Z,19.52
2019-03-31T08:46:55.476Z,19.59
2019-03-31T08:49:57.435Z,19.66
2019-03-31T08:52:59.458Z,19.63
2019-03-31T08:56:01.380Z,19.46
2019-03-31T08:59:03.280Z,19.30
2019-03-31T09:02:18.711Z,19.15
2019-03-31T09:05:20.687Z,19.19
2019-03-31T09:08:22.724Z,19.16
2019-03-31T09:11:24.637Z,19.25
2019-03-31T09:14:26.634Z,19.30
2019-03-31T09:17:28.540Z,19.38
2019-03-31T09:20:30.491Z,19.40
2019-03-31T09:23:32.468Z,19.43
2019-03-31T09:26:34.422Z,19.64
2019-03-31T09:29:36.432Z,20.04
2019-03-31T09:32:38.332Z,20.21
2019-03-31T09:35:40.304Z,20.35
2019-03-31T09:38:42.211Z,20.50
2019-03-31T09:41:44.086Z,20.77
2019-03-31T09:44:46.048Z,20.92
2019-03-31T09:47:47.941Z,20.87
2019-03-31T09:50:49.913Z,20.65
2019-03-31T09:53:51.945Z,20.65
2019-03-31T09:56:53.995Z,20.40
2019-03-31T09:59:55.924Z,20.04
2019-03-31T10:03:01.028Z,19.76
2019-03-31T10:06:10.438Z,19.73
2019-03-31T10:09:06.189Z,19.55
2019-03-31T10:12:08.112Z,19.44
2019-03-31T10:15:10.004Z,19.44
2019-03-31T10:18:11.877Z,19.38
2019-03-31T10:21:13.874Z,19.39
2019-03-31T10:24:15.878Z,19.51
2019-03-31T10:27:17.834Z,19.54
2019-03-31T10:30:39.034Z,19.48
2019-03-31T10:33:40.982Z,19.49
2019-03-31T10:36:44.581Z,19.59
2019-03-31T10:39:46.687Z,19.63
2019-03-31T10:42:48.622Z,19.62
2019-03-31T10:45:50.494Z,19.70
2019-03-31T10:48:52.376Z,19.64
2019-03-31T10:51:54.306Z,19.58
2019-03-31T10:54:56.359Z,19.56
2019-03-31T10:57:58.344Z,19.66
2019-03-31T11:01:00.298Z,19.78
2019-03-31T11:04:02.189Z,19.77
2019-03-31T11:07:04.893Z,19.78
2019-03-31T11:10:08.072Z,19.85
2019-03-31T11:13:09.975Z,19.90
2019-03-31T11:16:11.953Z,19.93
2019-03-31T11:19:13.955Z,19.82
2019-03-31T11:22:17.605Z,19.61
2019-03-31T11:25:22.097Z,19.47
2019-03-31T11:28:23.359Z,19.44
2019-03-31T11:31:25.272Z,19.53
2019-03-31T11:34:27.140Z,19.59
2019-03-31T11:37:29.107Z,19.62
2019-03-31T11:40:31.003Z,19.59
2019-03-31T11:43:33.245Z,19.54
2019-03-31T11:46:35.140Z,19.54
2019-03-31T11:49:37.118Z,19.54
2019-03-31T11:52:39.025Z,19.52
2019-03-31T11:55:41.069Z,19.64
2019-03-31T11:58:43.267Z,19.75
2019-03-31T12:01:45.282Z,19.94
2019-03-31T12:04:47.346Z,20.03
2019-03-31T12:07:49.390Z,20.17
2019-03-31T12:10:51.713Z,20.28
2019-03-31T12:13:53.657Z,20.22
2019-03-31T12:16:55.593Z,20.30
2019-03-31T12:19:57.552Z,20.25
2019-03-31T12:22:59.452Z,20.12
2019-03-31T12:26:01.425Z,19.99
2019-03-31T12:29:03.299Z,19.99
2019-03-31T12:32:05.185Z,19.97
2019-03-31T12:35:07.346Z,19.97
2019-03-31T12:38:09.278Z,20.03
2019-03-31T12:41:11.241Z,19.96
2019-03-31T12:44:13.154Z,19.96
2019-03-31T12:47:14.999Z,19.94
2019-03-31T12:50:16.917Z,19.86
2019-03-31T12:53:18.779Z,19.78
2019-03-31T12:56:20.738Z,19.79
2019-03-31T12:59:22.670Z,19.82
2019-03-31T13:02:24.595Z,19.80
2019-03-31T13:05:26.548Z,19.71
2019-03-31T13:08:28.484Z,19.54
2019-03-31T13:11:30.376Z,19.44
2019-03-31T13:14:32.445Z,19.36
2019-03-31T13:17:34.401Z,19.29
2019-03-31T13:20:36.361Z,19.39
2019-03-31T13:23:39.367Z,19.36
2019-03-31T13:26:41.332Z,19.45
2019-03-31T13:29:43.240Z,19.30
2019-03-31T13:32:45.135Z,19.13
2019-03-31T13:35:47.090Z,18.94
2019-03-31T13:38:48.966Z,18.85
2019-03-31T13:41:51.996Z,18.83
2019-03-31T13:44:54.030Z,18.91
2019-03-31T13:47:58.637Z,18.83
2019-03-31T13:50:59.832Z,18.69
2019-03-31T13:54:01.790Z,18.69
2019-03-31T13:57:04.108Z,18.55
2019-03-31T14:00:09.149Z,18.43
2019-03-31T14:03:11.066Z,18.32
2019-03-31T14:06:13.076Z,18.34
2019-03-31T14:09:15.022Z,18.31
2019-03-31T14:12:16.991Z,18.24
2019-03-31T14:15:19.858Z,18.08
2019-03-31T14:18:22.180Z,17.94
2019-03-31T14:21:24.142Z,17.90
2019-03-31T14:24:27.115Z,17.82
2019-03-31T14:27:29.509Z,17.65
2019-03-31T14:30:32.403Z,17.51
2019-03-31T14:33:34.344Z,17.41
2019-03-31T14:36:36.226Z,17.38
2019-03-31T14:39:38.239Z,17.44
2019-03-31T14:42:40.185Z,17.55
2019-03-31T14:45:42.105Z,17.49
2019-03-31T14:48:44.202Z,17.27
2019-03-31T14:51:46.146Z,17.28
2019-03-31T14:54:48.011Z,17.33
2019-03-31T14:57:50.082Z,17.26
2019-03-31T15:00:52.086Z,17.31
2019-03-31T15:03:54.039Z,17.31
2019-03-31T15:06:55.931Z,17.24
2019-03-31T15:09:57.920Z,17.03
2019-03-31T15:12:59.884Z,16.80
2019-03-31T15:16:01.949Z,16.55
2019-03-31T15:19:03.857Z,16.37
2019-03-31T15:22:05.816Z,16.26
2019-03-31T15:25:07.848Z,16.23
2019-03-31T15:28:09.869Z,16.17
2019-03-31T15:31:11.877Z,16.03
2019-03-31T15:34:13.795Z,15.79
2019-03-31T15:37:15.720Z,15.61
2019-03-31T15:40:17.726Z,15.45
2019-03-31T15:43:19.637Z,15.23
2019-03-31T15:46:24.486Z,15.03
2019-03-31T15:49:25.493Z,14.72
2019-03-31T15:52:27.565Z,14.67
2019-03-31T15:55:30.159Z,14.65
2019-03-31T15:58:33.722Z,14.51
2019-03-31T16:01:35.714Z,14.39
2019-03-31T16:04:37.633Z,14.18
2019-03-31T16:07:39.304Z,14.10
2019-03-31T16:10:41.288Z,14.02
2019-03-31T16:13:43.474Z,13.90
2019-03-31T16:16:45.443Z,13.81
2019-03-31T16:19:47.398Z,13.68
2019-03-31T16:22:51.649Z,13.53
2019-03-31T16:25:58.805Z,13.48
2019-03-31T16:29:00.732Z,13.41
2019-03-31T16:32:03.166Z,13.32
2019-03-31T16:35:05.176Z,13.20
2019-03-31T16:38:07.200Z,13.06
2019-03-31T16:41:10.343Z,12.95
2019-03-31T16:44:16.144Z,12.83
2019-03-31T16:47:18.066Z,12.73
2019-03-31T16:50:20.009Z,12.70
2019-03-31T16:53:23.829Z,12.65
2019-03-31T16:56:25.847Z,12.52
2019-03-31T16:59:30.553Z,12.42
2019-03-31T17:02:33.549Z,12.32
2019-03-31T17:05:35.462Z,12.19
2019-03-31T17:08:37.814Z,12.07
2019-03-31T17:11:40.239Z,11.87
2019-03-31T17:14:44.985Z,11.73
2019-03-31T17:17:46.948Z,11.62
2019-03-31T17:20:49.253Z,11.53
2019-03-31T17:23:52.859Z,11.39
2019-03-31T17:26:55.174Z,11.26
2019-03-31T17:29:58.717Z,11.16
2019-03-31T17:33:02.579Z,11.02
2019-03-31T17:36:04.476Z,10.88
2019-03-31T17:39:07.076Z,10.76
2019-03-31T17:42:08.980Z,10.71
2019-03-31T17:45:11.957Z,10.60
2019-03-31T17:48:14.578Z,10.50
2019-03-31T17:51:19.570Z,10.39
2019-03-31T17:54:21.914Z,10.30
2019-03-31T17:57:23.831Z,10.21
2019-03-31T18:00:27.159Z,10.13
2019-03-31T18:03:30.796Z,10.04
2019-03-31T18:06:32.787Z,9.95
2019-03-31T18:09:36.532Z,9.91
2019-03-31T18:12:38.460Z,9.85
2019-03-31T18:15:40.547Z,9.79
2019-03-31T18:18:42.554Z,9.73
2019-03-31T18:21:44.534Z,9.66
2019-03-31T18:24:47.591Z,9.59
2019-03-31T18:27:49.498Z,9.52
2019-03-31T18:30:53.036Z,9.46
2019-03-31T18:33:56.833Z,9.37
2019-03-31T18:36:58.804Z,9.30
2019-03-31T18:40:00.852Z,9.22
2019-03-31T18:43:03.150Z,9.15
2019-03-31T18:46:05.107Z,9.12
2019-03-31T18:49:10.600Z,9.04
2019-03-31T18:52:15.786Z,8.97
2019-03-31T18:55:37.972Z,8.88
2019-03-31T18:58:50.583Z,8.85
2019-03-31T19:01:58.186Z,8.74
2019-03-31T19:05:01.903Z,8.65
2019-03-31T19:08:23.076Z,8.55
2019-03-31T19:11:29.336Z,8.48
2019-03-31T19:14:36.033Z,8.42
2019-03-31T19:17:43.694Z,8.37
2019-03-31T19:21:11.444Z,8.24
2019-03-31T19:24:11.185Z,8.16
2019-03-31T19:27:25.530Z,8.03
2019-03-31T19:30:38.685Z,7.97
2019-03-31T19:33:54.943Z,7.94
2019-03-31T19:36:59.751Z,7.88
2019-03-31T19:40:14.829Z,7.86
2019-03-31T19:43:32.653Z,7.84
2019-03-31T19:46:36.790Z,7.78
2019-03-31T19:49:44.748Z,7.72
2019-03-31T19:53:05.198Z,7.65
2019-03-31T19:56:18.329Z,7.57
2019-03-31T19:59:24.804Z,7.43
2019-03-31T20:02:46.965Z,7.36
2019-03-31T20:05:59.914Z,7.33
2019-03-31T20:09:11.889Z,7.30
2019-03-31T20:12:20.033Z,7.29
2019-03-31T20:15:40.964Z,7.27
2019-03-31T20:18:49.089Z,7.25
2019-03-31T20:21:58.363Z,7.19
2019-03-31T20:25:14.242Z,7.15
2019-03-31T20:28:20.799Z,7.12
2019-03-31T20:31:31.610Z,7.06
2019-03-31T20:34:44.549Z,6.98
2019-03-31T20:37:54.057Z,6.95
2019-03-31T20:41:03.868Z,6.91
2019-03-31T20:44:07.658Z,6.89
2019-03-31T20:47:10.168Z,6.84
2019-03-31T20:50:13.442Z,6.84
2019-03-31T20:53:15.461Z,6.78
2019-03-31T20:56:17.382Z,6.74
2019-03-31T20:59:19.266Z,6.70
2019-03-31T21:02:21.186Z,6.65
2019-03-31T21:05:23.365Z,6.59
2019-03-31T21:08:25.301Z,6.49
2019-03-31T21:11:27.226Z,6.38
2019-03-31T21:14:29.153Z,6.29
2019-03-31T21:17:32.025Z,6.21
2019-03-31T21:20:33.995Z,6.15
2019-03-31T21:23:35.907Z,6.12
2019-03-31T21:26:37.935Z,6.06
2019-03-31T21:29:39.916Z,6.02
2019-03-31T21:32:41.897Z,5.97
2019-03-31T21:35:43.846Z,5.92
2019-03-31T21:38:45.687Z,5.86
2019-03-31T21:41:47.578Z,5.82
2019-03-31T21:44:50.589Z,5.80
2019-03-31T21:47:52.506Z,5.76
2019-03-31T21:50:54.488Z,5.73
2019-03-31T21:53:56.446Z,5.68
2019-03-31T21:56:58.374Z,5.62
2019-03-31T22:00:00.494Z,5.56
2019-03-31T22:03:02.556Z,5.47
2019-03-31T22:06:04.509Z,5.40
2019-03-31T22:09:08.303Z,5.32
2019-03-31T22:12:10.185Z,5.26
2019-03-31T22:15:12.292Z,5.18
2019-03-31T22:18:14.240Z,5.13
2019-03-31T22:21:16.183Z,5.09
2019-03-31T22:24:18.046Z,5.04
2019-03-31T22:27:19.975Z,5.02
2019-03-31T22:30:21.873Z,5.01
2019-03-31T22:33:23.806Z,4.97
2019-03-31T22:36:25.697Z,4.96
2019-03-31T22:39:27.563Z,4.93
2019-03-31T22:42:29.453Z,4.90
2019-03-31T22:45:31.321Z,4.84
2019-03-31T22:48:33.282Z,4.81
2019-03-31T22:51:35.270Z,4.79
2019-03-31T22:54:37.169Z,4.75
2019-03-31T22:57:39.078Z,4.72
2019-03-31T23:00:40.910Z,4.69
2019-03-31T23:03:44.701Z,4.64
2019-03-31T23:06:47.867Z,4.59
2019-03-31T23:09:49.815Z,4.56
2019-03-31T23:12:51.749Z,4.51
2019-03-31T23:15:53.620Z,4.45
2019-03-31T23:18:55.527Z,4.39
2019-03-31T23:21:58.281Z,4.29
2019-03-31T23:25:00.166Z,4.22
2019-03-31T23:28:01.979Z,4.16
2019-03-31T23:31:03.894Z,4.10
2019-03-31T23:34:06.811Z,4.06
2019-03-31T23:37:08.793Z,4.00
2019-03-31T23:40:10.682Z,3.94
2019-03-31T23:43:12.535Z,3.89
2019-03-31T23:46:14.445Z,3.87
2019-03-31T23:49:16.337Z,3.83
2019-03-31T23:52:18.181Z,3.77
2019-03-31T23:55:20.012Z,3.68
2019-03-31T23:58:21.895Z,3.61
